John F Kennedy International Airport
KJFK : rendu visible

Aérodrome :











RETROUVEZ-NOUS SUR...

 
LOGIN :

S'inscrire | Disclaimer

   EN    FR    IT 

 









Légende :    VFR   VFR Marginal   IFR   IFR Intensif   IFR Très Intensif
Visi : 
Plafond : 
>= 8 km
>= 3000ft
5 à 8 km
1000 à 3000 ft
1500m à 5 km
500 à 1000 ft
800 à 1500m
200 à 500 ft
< 800m
< 200 ft
Symboles :   Orages  Brouillard  Fortes neiges  Fortes précipitations  Vent > 20 kt






- Altitude de l'aérodrome : 13 ft
- Code IATA : JFK


KJFK - John F Kennedy International

DERNIER METAR :
  • 211551Z 32009KT 10SM FEW250 09/01 A3020 RMK AO2 SLP227 T00890006 $

METARs EXPIRÉS :
  • 211451Z 34008KT 10SM FEW250 08/01 A3021 RMK AO2 SLP229 T00780006 58001 $
  • 211351Z 36007KT 10SM FEW250 07/01 A3022 RMK AO2 SLP231 T00670006 $

TAF KJFK
Valide du 21 à 16h jusqu'au 22 à 18h UTC


211532Z 2116/2218 34007KT P6SM FEW250
FM211700 30008KT P6SM SCT250
FM212000 25008KT P6SM SCT250
FM212200 21007KT P6SM BKN250
FM220600 21010KT P6SM FEW050 BKN100
FM221000 22012G20KT P6SM SCT050 BKN100
FM221600 25015G24KT P6SM SCT050 BKN100



MET'MAP, la Météo Aéronautique d'un coup d'oeil ! - Copyright ORBIFLY Décembre 2007 - Disclaimer

ORBIFLY MET'MAP TEAM :

Programmation & Développement : Alexandra Zaïnal
Conception & Développement : Baudouin d'Aumeries
Co-Programmation & Développement : Marc-Olivier Méhu
Soutien technique & logistique : Manuel Goepfert

Contact : metmap@orbifly.com




SOURCES & CREDITS :

   NOAA       Earth
Advisory